sensor_id;sensor_type;location;lat;lon;timestamp;P1;durP1;ratioP1;P2;durP2;ratioP2
974;SDS011;6115;49.296;10.602;2023-08-06T00:00:53;1.43;;;1.00;;
974;SDS011;6115;49.296;10.602;2023-08-06T00:05:53;1.30;;;1.10;;
974;SDS011;6115;49.296;10.602;2023-08-06T00:10:54;1.13;;;0.97;;
974;SDS011;6115;49.296;10.602;2023-08-06T00:15:54;1.40;;;1.20;;
974;SDS011;6115;49.296;10.602;2023-08-06T00:20:55;1.10;;;0.80;;
974;SDS011;6115;49.296;10.602;2023-08-06T00:25:55;1.30;;;1.10;;
974;SDS011;6115;49.296;10.602;2023-08-06T00:30:56;1.27;;;1.00;;
974;SDS011;6115;49.296;10.602;2023-08-06T00:35:57;1.10;;;0.90;;
974;SDS011;6115;49.296;10.602;2023-08-06T00:40:57;1.47;;;1.10;;
974;SDS011;6115;49.296;10.602;2023-08-06T00:45:58;0.87;;;0.80;;
974;SDS011;6115;49.296;10.602;2023-08-06T00:50:58;0.90;;;0.80;;
974;SDS011;6115;49.296;10.602;2023-08-06T00:55:59;2.50;;;1.00;;
974;SDS011;6115;49.296;10.602;2023-08-06T01:01:00;2.07;;;1.10;;
974;SDS011;6115;49.296;10.602;2023-08-06T01:06:01;1.00;;;0.80;;
974;SDS011;6115;49.296;10.602;2023-08-06T01:11:08;1.30;;;0.90;;
974;SDS011;6115;49.296;10.602;2023-08-06T01:16:21;2.27;;;1.00;;
974;SDS011;6115;49.296;10.602;2023-08-06T01:21:24;1.07;;;0.97;;
974;SDS011;6115;49.296;10.602;2023-08-06T01:26:30;1.10;;;0.70;;
974;SDS011;6115;49.296;10.602;2023-08-06T01:31:41;1.50;;;0.80;;
974;SDS011;6115;49.296;10.602;2023-08-06T01:36:44;1.50;;;1.00;;
974;SDS011;6115;49.296;10.602;2023-08-06T01:41:45;1.20;;;0.90;;
974;SDS011;6115;49.296;10.602;2023-08-06T01:46:46;4.20;;;0.80;;
974;SDS011;6115;49.296;10.602;2023-08-06T01:51:47;2.20;;;1.10;;
974;SDS011;6115;49.296;10.602;2023-08-06T01:56:47;1.20;;;1.10;;
974;SDS011;6115;49.296;10.602;2023-08-06T02:01:48;1.17;;;1.00;;
974;SDS011;6115;49.296;10.602;2023-08-06T02:06:48;1.03;;;0.87;;
974;SDS011;6115;49.296;10.602;2023-08-06T02:11:49;1.60;;;1.10;;
974;SDS011;6115;49.296;10.602;2023-08-06T02:16:50;1.53;;;1.10;;
974;SDS011;6115;49.296;10.602;2023-08-06T02:21:50;1.23;;;0.90;;
974;SDS011;6115;49.296;10.602;2023-08-06T02:26:51;1.00;;;0.90;;
974;SDS011;6115;49.296;10.602;2023-08-06T02:31:55;1.73;;;1.20;;
974;SDS011;6115;49.296;10.602;2023-08-06T02:36:55;1.10;;;1.00;;
974;SDS011;6115;49.296;10.602;2023-08-06T02:41:56;1.60;;;1.00;;
974;SDS011;6115;49.296;10.602;2023-08-06T02:46:56;1.60;;;1.23;;
974;SDS011;6115;49.296;10.602;2023-08-06T02:51:57;1.63;;;1.13;;
974;SDS011;6115;49.296;10.602;2023-08-06T02:56:58;1.10;;;0.97;;
974;SDS011;6115;49.296;10.602;2023-08-06T03:01:58;1.73;;;1.43;;
974;SDS011;6115;49.296;10.602;2023-08-06T03:06:59;1.30;;;1.20;;
974;SDS011;6115;49.296;10.602;2023-08-06T03:11:59;1.00;;;0.80;;
974;SDS011;6115;49.296;10.602;2023-08-06T03:17:00;2.13;;;1.37;;
974;SDS011;6115;49.296;10.602;2023-08-06T03:22:00;1.47;;;1.00;;
974;SDS011;6115;49.296;10.602;2023-08-06T03:27:01;1.10;;;1.00;;
974;SDS011;6115;49.296;10.602;2023-08-06T03:32:01;1.57;;;1.47;;
974;SDS011;6115;49.296;10.602;2023-08-06T03:37:02;1.63;;;0.90;;
974;SDS011;6115;49.296;10.602;2023-08-06T03:42:02;1.50;;;1.40;;
974;SDS011;6115;49.296;10.602;2023-08-06T03:47:03;1.37;;;1.20;;
974;SDS011;6115;49.296;10.602;2023-08-06T03:52:04;1.53;;;1.43;;
974;SDS011;6115;49.296;10.602;2023-08-06T03:57:05;1.33;;;1.23;;
974;SDS011;6115;49.296;10.602;2023-08-06T04:02:06;2.70;;;1.10;;
974;SDS011;6115;49.296;10.602;2023-08-06T04:07:07;1.13;;;1.03;;
974;SDS011;6115;49.296;10.602;2023-08-06T04:12:07;1.77;;;1.50;;
974;SDS011;6115;49.296;10.602;2023-08-06T04:17:08;2.13;;;1.30;;
974;SDS011;6115;49.296;10.602;2023-08-06T04:22:08;1.60;;;1.50;;
974;SDS011;6115;49.296;10.602;2023-08-06T04:27:09;2.97;;;1.63;;
974;SDS011;6115;49.296;10.602;2023-08-06T04:32:10;1.50;;;1.40;;
974;SDS011;6115;49.296;10.602;2023-08-06T04:37:11;2.10;;;1.87;;
974;SDS011;6115;49.296;10.602;2023-08-06T04:42:11;1.90;;;1.70;;
974;SDS011;6115;49.296;10.602;2023-08-06T04:47:12;2.17;;;1.27;;
974;SDS011;6115;49.296;10.602;2023-08-06T04:52:13;2.40;;;2.10;;
974;SDS011;6115;49.296;10.602;2023-08-06T04:57:14;2.30;;;2.10;;
974;SDS011;6115;49.296;10.602;2023-08-06T05:02:14;2.30;;;1.53;;
974;SDS011;6115;49.296;10.602;2023-08-06T05:07:15;4.03;;;1.40;;
974;SDS011;6115;49.296;10.602;2023-08-06T05:12:16;2.70;;;1.90;;
974;SDS011;6115;49.296;10.602;2023-08-06T05:17:16;7.00;;;2.73;;
974;SDS011;6115;49.296;10.602;2023-08-06T05:22:17;2.40;;;2.20;;
974;SDS011;6115;49.296;10.602;2023-08-06T05:27:17;2.50;;;2.30;;
974;SDS011;6115;49.296;10.602;2023-08-06T05:32:21;6.10;;;2.10;;
974;SDS011;6115;49.296;10.602;2023-08-06T05:37:21;6.20;;;2.27;;
974;SDS011;6115;49.296;10.602;2023-08-06T05:42:22;2.30;;;2.10;;
974;SDS011;6115;49.296;10.602;2023-08-06T05:47:22;2.07;;;1.70;;
974;SDS011;6115;49.296;10.602;2023-08-06T05:52:23;2.03;;;1.80;;
974;SDS011;6115;49.296;10.602;2023-08-06T05:57:23;3.47;;;2.23;;
974;SDS011;6115;49.296;10.602;2023-08-06T06:02:24;3.43;;;2.27;;
974;SDS011;6115;49.296;10.602;2023-08-06T06:07:24;3.83;;;2.47;;
974;SDS011;6115;49.296;10.602;2023-08-06T06:12:25;3.23;;;2.17;;
974;SDS011;6115;49.296;10.602;2023-08-06T06:17:26;2.00;;;1.63;;
974;SDS011;6115;49.296;10.602;2023-08-06T06:22:27;1.60;;;1.30;;
974;SDS011;6115;49.296;10.602;2023-08-06T06:27:28;1.57;;;1.40;;
974;SDS011;6115;49.296;10.602;2023-08-06T06:32:29;2.30;;;1.40;;
974;SDS011;6115;49.296;10.602;2023-08-06T06:37:29;1.77;;;1.47;;
974;SDS011;6115;49.296;10.602;2023-08-06T06:42:30;1.73;;;1.30;;
974;SDS011;6115;49.296;10.602;2023-08-06T06:47:30;1.70;;;1.10;;
974;SDS011;6115;49.296;10.602;2023-08-06T06:52:31;1.10;;;1.00;;
974;SDS011;6115;49.296;10.602;2023-08-06T06:57:31;1.47;;;1.23;;
974;SDS011;6115;49.296;10.602;2023-08-06T07:02:32;1.30;;;1.00;;
974;SDS011;6115;49.296;10.602;2023-08-06T07:07:32;1.10;;;0.93;;
974;SDS011;6115;49.296;10.602;2023-08-06T07:12:33;1.70;;;1.23;;
974;SDS011;6115;49.296;10.602;2023-08-06T07:17:33;1.30;;;1.20;;
974;SDS011;6115;49.296;10.602;2023-08-06T07:22:34;3.10;;;1.40;;
974;SDS011;6115;49.296;10.602;2023-08-06T07:27:35;1.17;;;1.00;;
974;SDS011;6115;49.296;10.602;2023-08-06T07:32:36;1.10;;;0.80;;
974;SDS011;6115;49.296;10.602;2023-08-06T07:37:36;1.10;;;0.80;;
974;SDS011;6115;49.296;10.602;2023-08-06T07:42:37;1.23;;;0.70;;
974;SDS011;6115;49.296;10.602;2023-08-06T07:47:37;1.93;;;0.70;;
974;SDS011;6115;49.296;10.602;2023-08-06T07:52:38;0.87;;;0.67;;
974;SDS011;6115;49.296;10.602;2023-08-06T07:57:39;0.80;;;0.60;;
974;SDS011;6115;49.296;10.602;2023-08-06T08:02:39;0.90;;;0.60;;
974;SDS011;6115;49.296;10.602;2023-08-06T08:07:40;0.70;;;0.50;;
974;SDS011;6115;49.296;10.602;2023-08-06T08:12:40;0.90;;;0.60;;
974;SDS011;6115;49.296;10.602;2023-08-06T08:17:42;0.70;;;0.40;;
974;SDS011;6115;49.296;10.602;2023-08-06T08:22:43;0.70;;;0.50;;
974;SDS011;6115;49.296;10.602;2023-08-06T08:27:43;0.83;;;0.60;;
974;SDS011;6115;49.296;10.602;2023-08-06T08:32:44;0.70;;;0.40;;
974;SDS011;6115;49.296;10.602;2023-08-06T08:37:44;0.70;;;0.50;;
974;SDS011;6115;49.296;10.602;2023-08-06T08:42:45;0.70;;;0.50;;
974;SDS011;6115;49.296;10.602;2023-08-06T08:47:46;0.80;;;0.50;;
974;SDS011;6115;49.296;10.602;2023-08-06T08:52:47;1.13;;;0.50;;
974;SDS011;6115;49.296;10.602;2023-08-06T08:57:51;0.80;;;0.50;;
974;SDS011;6115;49.296;10.602;2023-08-06T09:02:51;0.80;;;0.50;;
974;SDS011;6115;49.296;10.602;2023-08-06T09:07:53;0.90;;;0.67;;
974;SDS011;6115;49.296;10.602;2023-08-06T09:12:57;0.70;;;0.50;;
974;SDS011;6115;49.296;10.602;2023-08-06T09:17:58;2.27;;;1.60;;
974;SDS011;6115;49.296;10.602;2023-08-06T09:22:58;1.30;;;1.20;;
974;SDS011;6115;49.296;10.602;2023-08-06T09:28:07;2.60;;;1.60;;
974;SDS011;6115;49.296;10.602;2023-08-06T09:33:08;1.30;;;0.70;;
974;SDS011;6115;49.296;10.602;2023-08-06T09:38:14;0.77;;;0.53;;
974;SDS011;6115;49.296;10.602;2023-08-06T09:43:14;0.90;;;0.60;;
974;SDS011;6115;49.296;10.602;2023-08-06T09:48:15;0.70;;;0.43;;
974;SDS011;6115;49.296;10.602;2023-08-06T09:53:16;0.70;;;0.40;;
974;SDS011;6115;49.296;10.602;2023-08-06T09:58:18;0.70;;;0.40;;
974;SDS011;6115;49.296;10.602;2023-08-06T10:03:22;1.20;;;0.50;;
974;SDS011;6115;49.296;10.602;2023-08-06T10:08:23;0.70;;;0.40;;
974;SDS011;6115;49.296;10.602;2023-08-06T10:13:24;0.70;;;0.30;;
974;SDS011;6115;49.296;10.602;2023-08-06T10:18:24;0.70;;;0.40;;
974;SDS011;6115;49.296;10.602;2023-08-06T10:23:32;0.90;;;0.60;;
974;SDS011;6115;49.296;10.602;2023-08-06T10:28:36;0.80;;;0.40;;
974;SDS011;6115;49.296;10.602;2023-08-06T10:33:41;0.70;;;0.40;;
974;SDS011;6115;49.296;10.602;2023-08-06T10:38:52;0.80;;;0.53;;
974;SDS011;6115;49.296;10.602;2023-08-06T10:44:06;0.97;;;0.60;;
974;SDS011;6115;49.296;10.602;2023-08-06T10:49:08;0.80;;;0.70;;
974;SDS011;6115;49.296;10.602;2023-08-06T10:54:09;1.23;;;0.60;;
974;SDS011;6115;49.296;10.602;2023-08-06T10:59:10;1.53;;;1.03;;
974;SDS011;6115;49.296;10.602;2023-08-06T11:04:10;0.90;;;0.50;;
974;SDS011;6115;49.296;10.602;2023-08-06T11:09:15;1.30;;;0.73;;
974;SDS011;6115;49.296;10.602;2023-08-06T11:14:16;1.33;;;0.70;;
974;SDS011;6115;49.296;10.602;2023-08-06T11:19:17;1.13;;;0.97;;
974;SDS011;6115;49.296;10.602;2023-08-06T11:24:17;0.70;;;0.40;;
974;SDS011;6115;49.296;10.602;2023-08-06T11:29:18;1.10;;;0.67;;
974;SDS011;6115;49.296;10.602;2023-08-06T11:34:19;0.80;;;0.50;;
974;SDS011;6115;49.296;10.602;2023-08-06T11:39:19;1.53;;;0.80;;
974;SDS011;6115;49.296;10.602;2023-08-06T11:44:21;1.13;;;0.77;;
974;SDS011;6115;49.296;10.602;2023-08-06T11:54:47;0.70;;;0.40;;
974;SDS011;6115;49.296;10.602;2023-08-06T12:00:11;0.80;;;0.60;;
974;SDS011;6115;49.296;10.602;2023-08-06T12:05:13;0.70;;;0.40;;
974;SDS011;6115;49.296;10.602;2023-08-06T12:10:18;0.70;;;0.40;;
974;SDS011;6115;49.296;10.602;2023-08-06T12:15:20;0.80;;;0.50;;
974;SDS011;6115;49.296;10.602;2023-08-06T12:20:22;1.03;;;0.90;;
974;SDS011;6115;49.296;10.602;2023-08-06T12:25:22;0.70;;;0.40;;
974;SDS011;6115;49.296;10.602;2023-08-06T12:30:24;0.70;;;0.40;;
974;SDS011;6115;49.296;10.602;2023-08-06T12:35:24;0.80;;;0.50;;
974;SDS011;6115;49.296;10.602;2023-08-06T12:40:25;0.70;;;0.40;;
974;SDS011;6115;49.296;10.602;2023-08-06T12:45:26;0.70;;;0.40;;
974;SDS011;6115;49.296;10.602;2023-08-06T12:50:27;0.80;;;0.50;;
974;SDS011;6115;49.296;10.602;2023-08-06T12:55:27;0.70;;;0.40;;
974;SDS011;6115;49.296;10.602;2023-08-06T13:00:28;0.70;;;0.40;;
974;SDS011;6115;49.296;10.602;2023-08-06T13:05:28;0.90;;;0.40;;
974;SDS011;6115;49.296;10.602;2023-08-06T13:10:29;0.90;;;0.63;;
974;SDS011;6115;49.296;10.602;2023-08-06T13:15:31;1.57;;;0.67;;
974;SDS011;6115;49.296;10.602;2023-08-06T13:20:31;1.23;;;0.90;;
974;SDS011;6115;49.296;10.602;2023-08-06T13:25:32;0.70;;;0.40;;
974;SDS011;6115;49.296;10.602;2023-08-06T13:30:36;0.70;;;0.40;;
974;SDS011;6115;49.296;10.602;2023-08-06T13:35:41;0.80;;;0.50;;
974;SDS011;6115;49.296;10.602;2023-08-06T13:40:42;0.80;;;0.60;;
974;SDS011;6115;49.296;10.602;2023-08-06T13:45:44;0.70;;;0.40;;
974;SDS011;6115;49.296;10.602;2023-08-06T13:50:44;0.70;;;0.40;;
974;SDS011;6115;49.296;10.602;2023-08-06T13:55:45;0.93;;;0.70;;
974;SDS011;6115;49.296;10.602;2023-08-06T14:00:45;0.80;;;0.57;;
974;SDS011;6115;49.296;10.602;2023-08-06T14:05:46;0.80;;;0.60;;
974;SDS011;6115;49.296;10.602;2023-08-06T14:10:47;0.80;;;0.57;;
974;SDS011;6115;49.296;10.602;2023-08-06T14:15:47;0.93;;;0.53;;
974;SDS011;6115;49.296;10.602;2023-08-06T14:20:48;1.10;;;0.90;;
974;SDS011;6115;49.296;10.602;2023-08-06T14:25:49;1.33;;;1.20;;
974;SDS011;6115;49.296;10.602;2023-08-06T14:30:49;1.07;;;0.73;;
974;SDS011;6115;49.296;10.602;2023-08-06T14:35:50;1.00;;;0.90;;
974;SDS011;6115;49.296;10.602;2023-08-06T14:40:50;1.77;;;1.30;;
974;SDS011;6115;49.296;10.602;2023-08-06T14:45:51;2.60;;;1.10;;
974;SDS011;6115;49.296;10.602;2023-08-06T14:50:52;2.90;;;0.90;;
974;SDS011;6115;49.296;10.602;2023-08-06T14:55:52;1.23;;;0.80;;
974;SDS011;6115;49.296;10.602;2023-08-06T15:00:53;1.00;;;0.90;;
974;SDS011;6115;49.296;10.602;2023-08-06T15:05:54;1.60;;;1.00;;
974;SDS011;6115;49.296;10.602;2023-08-06T15:10:55;1.20;;;1.00;;
974;SDS011;6115;49.296;10.602;2023-08-06T15:15:55;0.90;;;0.80;;
974;SDS011;6115;49.296;10.602;2023-08-06T15:20:56;1.47;;;1.07;;
974;SDS011;6115;49.296;10.602;2023-08-06T15:25:57;0.90;;;0.70;;
974;SDS011;6115;49.296;10.602;2023-08-06T15:30:58;1.00;;;0.70;;
974;SDS011;6115;49.296;10.602;2023-08-06T15:35:59;2.80;;;0.87;;
974;SDS011;6115;49.296;10.602;2023-08-06T15:41:00;1.00;;;0.70;;
974;SDS011;6115;49.296;10.602;2023-08-06T15:46:00;1.00;;;0.70;;
974;SDS011;6115;49.296;10.602;2023-08-06T15:51:01;1.17;;;0.70;;
974;SDS011;6115;49.296;10.602;2023-08-06T15:56:01;1.00;;;0.60;;
974;SDS011;6115;49.296;10.602;2023-08-06T16:01:02;0.93;;;0.67;;
974;SDS011;6115;49.296;10.602;2023-08-06T16:06:03;1.10;;;0.70;;
974;SDS011;6115;49.296;10.602;2023-08-06T16:11:04;1.20;;;0.80;;
974;SDS011;6115;49.296;10.602;2023-08-06T16:16:04;0.80;;;0.60;;
974;SDS011;6115;49.296;10.602;2023-08-06T16:21:05;1.10;;;0.60;;
974;SDS011;6115;49.296;10.602;2023-08-06T16:26:06;0.70;;;0.57;;
974;SDS011;6115;49.296;10.602;2023-08-06T16:31:06;0.90;;;0.60;;
974;SDS011;6115;49.296;10.602;2023-08-06T16:36:10;1.10;;;0.70;;
974;SDS011;6115;49.296;10.602;2023-08-06T16:41:10;0.93;;;0.83;;
974;SDS011;6115;49.296;10.602;2023-08-06T16:46:11;0.90;;;0.60;;
974;SDS011;6115;49.296;10.602;2023-08-06T16:51:11;0.80;;;0.70;;
974;SDS011;6115;49.296;10.602;2023-08-06T16:56:13;2.17;;;0.77;;
974;SDS011;6115;49.296;10.602;2023-08-06T17:01:13;0.80;;;0.60;;
974;SDS011;6115;49.296;10.602;2023-08-06T17:06:15;0.87;;;0.63;;
974;SDS011;6115;49.296;10.602;2023-08-06T17:11:16;1.00;;;0.70;;
974;SDS011;6115;49.296;10.602;2023-08-06T17:16:17;0.80;;;0.60;;
974;SDS011;6115;49.296;10.602;2023-08-06T17:21:17;1.10;;;0.80;;
974;SDS011;6115;49.296;10.602;2023-08-06T17:26:18;1.00;;;0.70;;
974;SDS011;6115;49.296;10.602;2023-08-06T17:31:19;1.30;;;0.60;;
974;SDS011;6115;49.296;10.602;2023-08-06T17:36:19;0.80;;;0.60;;
974;SDS011;6115;49.296;10.602;2023-08-06T17:41:20;0.90;;;0.70;;
974;SDS011;6115;49.296;10.602;2023-08-06T17:46:20;1.50;;;1.10;;
974;SDS011;6115;49.296;10.602;2023-08-06T17:51:21;0.80;;;0.80;;
974;SDS011;6115;49.296;10.602;2023-08-06T17:56:21;1.10;;;0.73;;
974;SDS011;6115;49.296;10.602;2023-08-06T18:01:22;0.80;;;0.70;;
974;SDS011;6115;49.296;10.602;2023-08-06T18:06:22;0.90;;;0.60;;
974;SDS011;6115;49.296;10.602;2023-08-06T18:11:23;1.53;;;0.77;;
974;SDS011;6115;49.296;10.602;2023-08-06T18:16:23;1.53;;;0.70;;
974;SDS011;6115;49.296;10.602;2023-08-06T18:21:24;0.90;;;0.63;;
974;SDS011;6115;49.296;10.602;2023-08-06T18:26:25;0.80;;;0.67;;
974;SDS011;6115;49.296;10.602;2023-08-06T18:31:25;0.80;;;0.60;;
974;SDS011;6115;49.296;10.602;2023-08-06T18:36:26;1.63;;;1.17;;
974;SDS011;6115;49.296;10.602;2023-08-06T18:41:26;0.80;;;0.50;;
974;SDS011;6115;49.296;10.602;2023-08-06T18:46:27;2.20;;;0.60;;
974;SDS011;6115;49.296;10.602;2023-08-06T18:51:27;0.70;;;0.50;;
974;SDS011;6115;49.296;10.602;2023-08-06T18:56:28;0.70;;;0.60;;
974;SDS011;6115;49.296;10.602;2023-08-06T19:01:28;0.80;;;0.70;;
974;SDS011;6115;49.296;10.602;2023-08-06T19:06:29;1.03;;;0.93;;
974;SDS011;6115;49.296;10.602;2023-08-06T19:11:31;1.40;;;0.77;;
974;SDS011;6115;49.296;10.602;2023-08-06T19:16:31;1.07;;;0.97;;
974;SDS011;6115;49.296;10.602;2023-08-06T19:21:32;1.03;;;0.60;;
974;SDS011;6115;49.296;10.602;2023-08-06T19:26:32;0.80;;;0.70;;
974;SDS011;6115;49.296;10.602;2023-08-06T19:31:33;1.00;;;0.60;;
974;SDS011;6115;49.296;10.602;2023-08-06T19:36:33;0.70;;;0.50;;
974;SDS011;6115;49.296;10.602;2023-08-06T19:41:34;0.80;;;0.60;;
974;SDS011;6115;49.296;10.602;2023-08-06T19:46:35;1.00;;;0.80;;
974;SDS011;6115;49.296;10.602;2023-08-06T19:51:35;0.80;;;0.70;;
974;SDS011;6115;49.296;10.602;2023-08-06T19:56:40;0.90;;;0.63;;
974;SDS011;6115;49.296;10.602;2023-08-06T20:01:40;0.77;;;0.60;;
974;SDS011;6115;49.296;10.602;2023-08-06T20:06:41;1.00;;;0.80;;
974;SDS011;6115;49.296;10.602;2023-08-06T20:11:41;0.70;;;0.40;;
974;SDS011;6115;49.296;10.602;2023-08-06T20:16:42;0.90;;;0.73;;
974;SDS011;6115;49.296;10.602;2023-08-06T20:21:44;0.90;;;0.60;;
974;SDS011;6115;49.296;10.602;2023-08-06T20:26:45;0.70;;;0.50;;
974;SDS011;6115;49.296;10.602;2023-08-06T20:31:46;0.70;;;0.50;;
974;SDS011;6115;49.296;10.602;2023-08-06T20:36:46;0.90;;;0.60;;
974;SDS011;6115;49.296;10.602;2023-08-06T20:41:47;1.83;;;0.60;;
974;SDS011;6115;49.296;10.602;2023-08-06T20:46:47;0.80;;;0.60;;
974;SDS011;6115;49.296;10.602;2023-08-06T20:51:48;1.27;;;0.60;;
974;SDS011;6115;49.296;10.602;2023-08-06T20:56:48;0.70;;;0.50;;
974;SDS011;6115;49.296;10.602;2023-08-06T21:01:49;0.70;;;0.50;;
974;SDS011;6115;49.296;10.602;2023-08-06T21:06:49;1.00;;;0.60;;
974;SDS011;6115;49.296;10.602;2023-08-06T21:11:50;0.70;;;0.60;;
974;SDS011;6115;49.296;10.602;2023-08-06T21:16:50;3.17;;;0.90;;
974;SDS011;6115;49.296;10.602;2023-08-06T21:21:51;0.93;;;0.60;;
974;SDS011;6115;49.296;10.602;2023-08-06T21:26:51;1.10;;;1.00;;
974;SDS011;6115;49.296;10.602;2023-08-06T21:31:52;0.80;;;0.70;;
974;SDS011;6115;49.296;10.602;2023-08-06T21:36:52;0.90;;;0.67;;
974;SDS011;6115;49.296;10.602;2023-08-06T21:41:54;0.80;;;0.60;;
974;SDS011;6115;49.296;10.602;2023-08-06T21:46:55;0.80;;;0.60;;
974;SDS011;6115;49.296;10.602;2023-08-06T21:51:55;0.90;;;0.60;;
974;SDS011;6115;49.296;10.602;2023-08-06T21:56:57;1.20;;;0.60;;
974;SDS011;6115;49.296;10.602;2023-08-06T22:01:57;1.37;;;0.97;;
974;SDS011;6115;49.296;10.602;2023-08-06T22:06:58;2.50;;;1.40;;
974;SDS011;6115;49.296;10.602;2023-08-06T22:11:58;0.97;;;0.87;;
974;SDS011;6115;49.296;10.602;2023-08-06T22:16:59;1.37;;;0.90;;
974;SDS011;6115;49.296;10.602;2023-08-06T22:21:59;0.80;;;0.73;;
974;SDS011;6115;49.296;10.602;2023-08-06T22:27:00;0.90;;;0.67;;
974;SDS011;6115;49.296;10.602;2023-08-06T22:32:00;0.70;;;0.50;;
974;SDS011;6115;49.296;10.602;2023-08-06T22:37:01;0.90;;;0.70;;
974;SDS011;6115;49.296;10.602;2023-08-06T22:42:01;0.97;;;0.60;;
974;SDS011;6115;49.296;10.602;2023-08-06T22:47:02;0.80;;;0.50;;
974;SDS011;6115;49.296;10.602;2023-08-06T22:52:04;0.80;;;0.50;;
974;SDS011;6115;49.296;10.602;2023-08-06T22:57:08;0.73;;;0.47;;
974;SDS011;6115;49.296;10.602;2023-08-06T23:02:08;1.00;;;0.53;;
974;SDS011;6115;49.296;10.602;2023-08-06T23:07:09;1.33;;;0.80;;
974;SDS011;6115;49.296;10.602;2023-08-06T23:12:09;0.80;;;0.57;;
974;SDS011;6115;49.296;10.602;2023-08-06T23:17:10;0.70;;;0.50;;
974;SDS011;6115;49.296;10.602;2023-08-06T23:22:10;0.90;;;0.60;;
974;SDS011;6115;49.296;10.602;2023-08-06T23:27:11;0.70;;;0.40;;
974;SDS011;6115;49.296;10.602;2023-08-06T23:32:11;0.70;;;0.40;;
974;SDS011;6115;49.296;10.602;2023-08-06T23:37:12;0.80;;;0.73;;
974;SDS011;6115;49.296;10.602;2023-08-06T23:42:12;0.70;;;0.50;;
974;SDS011;6115;49.296;10.602;2023-08-06T23:47:13;0.80;;;0.50;;
974;SDS011;6115;49.296;10.602;2023-08-06T23:52:13;0.70;;;0.40;;
974;SDS011;6115;49.296;10.602;2023-08-06T23:57:14;0.70;;;0.43;;
